createdAt,value
2018-07-20T00:01:16.207Z,14.10
2018-07-20T00:03:44.398Z,14.20
2018-07-20T00:06:12.553Z,14.20
2018-07-20T00:08:40.753Z,14.20
2018-07-20T00:11:09.315Z,14.20
2018-07-20T00:13:37.937Z,14.20
2018-07-20T00:16:06.131Z,14.10
2018-07-20T00:18:34.345Z,14.10
2018-07-20T00:21:02.526Z,14.00
2018-07-20T00:23:30.737Z,13.90
2018-07-20T00:25:58.921Z,13.90
2018-07-20T00:28:27.067Z,13.80
2018-07-20T00:30:55.306Z,13.70
2018-07-20T00:33:23.545Z,13.70
2018-07-20T00:35:52.664Z,13.80
2018-07-20T00:38:20.843Z,13.90
2018-07-20T00:40:49.014Z,14.00
2018-07-20T00:43:18.305Z,14.00
2018-07-20T00:45:46.525Z,14.00
2018-07-20T00:48:14.728Z,13.90
2018-07-20T00:50:42.954Z,13.80
2018-07-20T00:53:11.212Z,13.70
2018-07-20T00:55:39.426Z,13.60
2018-07-20T00:58:08.299Z,13.50
2018-07-20T01:00:36.502Z,13.40
2018-07-20T01:03:05.732Z,13.40
2018-07-20T01:05:34.058Z,13.40
2018-07-20T01:08:02.233Z,13.40
2018-07-20T01:10:30.452Z,13.30
2018-07-20T01:12:58.641Z,13.20
2018-07-20T01:15:26.846Z,13.20
2018-07-20T01:17:55.022Z,13.30
2018-07-20T01:20:23.177Z,13.30
2018-07-20T01:22:51.374Z,13.50
2018-07-20T01:25:19.664Z,13.60
2018-07-20T01:27:47.854Z,13.80
2018-07-20T01:30:16.897Z,14.00
2018-07-20T01:32:45.111Z,14.10
2018-07-20T01:35:13.328Z,14.10
2018-07-20T01:40:09.443Z,14.10
2018-07-20T01:42:37.695Z,14.20
2018-07-20T01:45:05.875Z,14.30
2018-07-20T01:47:34.060Z,14.30
2018-07-20T01:50:02.219Z,14.40
2018-07-20T01:52:30.397Z,14.40
2018-07-20T01:54:58.919Z,14.40
2018-07-20T01:57:27.773Z,14.30
2018-07-20T01:59:56.029Z,14.10
2018-07-20T02:02:24.221Z,13.90
2018-07-20T02:04:52.961Z,13.80
2018-07-20T02:07:21.233Z,13.60
2018-07-20T02:09:49.409Z,13.50
2018-07-20T02:12:17.789Z,13.40
2018-07-20T02:14:45.949Z,13.30
2018-07-20T02:17:14.133Z,13.30
2018-07-20T02:19:42.338Z,13.30
2018-07-20T02:22:10.566Z,13.30
2018-07-20T02:24:38.724Z,13.40
2018-07-20T02:27:06.909Z,13.40
2018-07-20T02:29:35.156Z,13.40
2018-07-20T02:32:03.334Z,13.40
2018-07-20T02:34:31.582Z,13.30
2018-07-20T02:36:59.742Z,13.20
2018-07-20T02:39:27.909Z,13.00
2018-07-20T02:41:56.122Z,12.90
2018-07-20T02:44:24.343Z,12.80
2018-07-20T02:46:52.557Z,12.70
2018-07-20T02:49:20.777Z,12.60
2018-07-20T02:51:49.661Z,12.60
2018-07-20T02:54:18.130Z,12.60
2018-07-20T02:56:46.485Z,12.60
2018-07-20T02:59:14.661Z,12.60
2018-07-20T03:01:42.955Z,12.60
2018-07-20T03:04:11.159Z,12.70
2018-07-20T03:06:39.331Z,12.80
2018-07-20T03:09:09.806Z,13.00
2018-07-20T03:11:38.175Z,13.10
2018-07-20T03:14:06.430Z,13.30
2018-07-20T03:16:34.759Z,13.50
2018-07-20T03:19:02.995Z,13.70
2018-07-20T03:21:31.512Z,13.80
2018-07-20T03:23:59.705Z,13.90
2018-07-20T03:26:28.230Z,14.00
2018-07-20T03:28:56.450Z,14.10
2018-07-20T03:31:25.539Z,14.10
2018-07-20T03:33:53.774Z,14.20
2018-07-20T03:36:22.210Z,14.20
2018-07-20T03:38:50.409Z,14.20
2018-07-20T03:41:19.501Z,14.20
2018-07-20T03:43:47.715Z,14.30
2018-07-20T03:46:15.930Z,14.30
2018-07-20T03:48:44.178Z,14.40
2018-07-20T03:51:12.389Z,14.50
2018-07-20T03:53:41.385Z,14.50
2018-07-20T03:56:09.598Z,14.60
2018-07-20T03:58:37.856Z,14.70
2018-07-20T04:01:06.037Z,14.80
2018-07-20T04:03:34.271Z,15.00
2018-07-20T04:06:02.483Z,15.00
2018-07-20T04:08:30.647Z,15.20
2018-07-20T04:10:58.830Z,15.30
2018-07-20T04:13:27.326Z,15.40
2018-07-20T04:15:55.528Z,15.50
2018-07-20T04:18:23.757Z,15.50
2018-07-20T04:20:51.930Z,15.60
2018-07-20T04:23:20.144Z,15.70
2018-07-20T04:25:48.358Z,15.80
2018-07-20T04:28:16.518Z,15.90
2018-07-20T04:30:44.735Z,15.90
2018-07-20T04:33:12.982Z,16.10
2018-07-20T04:35:41.257Z,16.20
2018-07-20T04:38:09.423Z,16.30
2018-07-20T04:40:37.794Z,16.30
2018-07-20T04:43:05.997Z,16.40
2018-07-20T04:45:34.177Z,16.50
2018-07-20T04:48:02.419Z,16.60
2018-07-20T04:50:30.850Z,16.80
2018-07-20T04:52:59.029Z,17.00
2018-07-20T04:55:27.213Z,17.00
2018-07-20T04:57:56.058Z,17.10
2018-07-20T05:00:24.348Z,17.10
2018-07-20T05:02:52.517Z,17.20
2018-07-20T05:05:20.712Z,17.30
2018-07-20T05:07:48.922Z,17.40
2018-07-20T05:10:17.105Z,17.50
2018-07-20T05:12:45.338Z,17.60
2018-07-20T05:15:13.576Z,17.70
2018-07-20T05:17:41.747Z,17.90
2018-07-20T05:20:09.921Z,18.40
2018-07-20T05:22:38.121Z,19.00
2018-07-20T05:25:06.370Z,19.60
2018-07-20T05:27:34.558Z,20.30
2018-07-20T05:30:02.778Z,21.40
2018-07-20T05:32:31.073Z,22.50
2018-07-20T05:34:59.245Z,23.70
2018-07-20T05:37:27.494Z,24.30
2018-07-20T05:39:55.719Z,24.80
2018-07-20T05:42:23.949Z,25.10
2018-07-20T05:44:52.248Z,25.10
2018-07-20T05:47:20.443Z,25.10
2018-07-20T05:49:48.613Z,25.20
2018-07-20T05:52:17.150Z,25.40
2018-07-20T05:54:45.435Z,25.90
2018-07-20T05:57:13.657Z,26.60
2018-07-20T05:59:42.664Z,27.40
2018-07-20T06:02:11.261Z,27.60
2018-07-20T06:04:39.437Z,26.90
2018-07-20T06:09:35.572Z,26.50
2018-07-20T06:12:03.753Z,26.10
2018-07-20T06:14:32.068Z,25.90
2018-07-20T06:17:00.290Z,26.20
2018-07-20T06:19:28.546Z,26.10
2018-07-20T06:21:56.812Z,26.20
2018-07-20T06:24:25.006Z,25.90
2018-07-20T06:26:59.515Z,26.00
2018-07-20T06:29:27.698Z,26.70
2018-07-20T06:31:55.944Z,27.50
2018-07-20T06:34:24.178Z,27.60
2018-07-20T06:36:52.419Z,27.70
2018-07-20T06:39:20.627Z,27.70
2018-07-20T06:41:48.798Z,28.10
2018-07-20T06:44:17.078Z,28.50
2018-07-20T06:46:45.278Z,29.00
2018-07-20T06:49:13.485Z,29.30
2018-07-20T06:51:41.678Z,29.50
2018-07-20T06:54:10.134Z,29.20
2018-07-20T06:56:39.061Z,28.90
2018-07-20T06:59:07.230Z,28.60
2018-07-20T07:01:35.435Z,28.50
2018-07-20T07:04:03.665Z,28.90
2018-07-20T07:06:31.899Z,29.60
2018-07-20T07:09:00.137Z,29.80
2018-07-20T07:11:28.664Z,30.50
2018-07-20T07:13:56.843Z,30.90
2018-07-20T07:16:25.364Z,30.90
2018-07-20T07:18:53.573Z,31.00
2018-07-20T07:21:21.766Z,31.60
2018-07-20T07:23:49.983Z,31.70
2018-07-20T07:26:18.156Z,31.70
2018-07-20T07:28:46.399Z,31.50
2018-07-20T07:31:14.583Z,30.90
2018-07-20T07:33:44.506Z,29.70
2018-07-20T07:36:13.433Z,29.40
2018-07-20T07:38:41.613Z,29.10
2018-07-20T07:41:09.849Z,29.20
2018-07-20T07:43:38.066Z,29.00
2018-07-20T07:46:06.342Z,29.10
2018-07-20T07:48:35.091Z,29.50
2018-07-20T07:51:03.655Z,29.50
2018-07-20T07:53:31.858Z,29.50
2018-07-20T07:56:00.078Z,30.00
2018-07-20T07:58:28.383Z,30.00
2018-07-20T08:00:56.625Z,29.60
2018-07-20T08:05:52.803Z,29.50
2018-07-20T08:08:20.977Z,29.60
2018-07-20T08:10:49.184Z,30.00
2018-07-20T08:13:17.431Z,31.10
2018-07-20T08:15:45.713Z,31.90
2018-07-20T08:18:14.005Z,32.30
2018-07-20T08:20:42.359Z,32.40
2018-07-20T08:23:10.638Z,32.30
2018-07-20T08:25:38.850Z,32.40
2018-07-20T08:28:07.250Z,33.10
2018-07-20T08:30:35.434Z,33.60
2018-07-20T08:33:03.666Z,32.50
2018-07-20T08:35:31.867Z,32.40
2018-07-20T08:38:00.091Z,32.80
2018-07-20T08:40:29.109Z,33.10
2018-07-20T08:42:57.530Z,33.60
2018-07-20T08:45:27.070Z,33.60
2018-07-20T08:47:55.274Z,34.30
2018-07-20T08:50:23.481Z,34.10
2018-07-20T08:52:51.951Z,34.00
2018-07-20T08:55:20.146Z,33.80
2018-07-20T08:57:48.311Z,33.30
2018-07-20T09:00:16.573Z,32.40
2018-07-20T09:02:44.765Z,32.20
2018-07-20T09:05:13.022Z,32.40
2018-07-20T09:07:41.214Z,32.30
2018-07-20T09:10:09.577Z,31.90
2018-07-20T09:12:37.817Z,32.10
2018-07-20T09:15:06.059Z,32.40
2018-07-20T09:17:34.284Z,33.30
2018-07-20T09:20:03.006Z,33.50
2018-07-20T09:22:31.221Z,33.70
2018-07-20T09:24:59.402Z,34.30
2018-07-20T09:27:27.609Z,34.90
2018-07-20T09:29:55.849Z,35.60
2018-07-20T09:32:24.048Z,35.20
2018-07-20T09:34:52.265Z,35.30
2018-07-20T09:37:20.491Z,35.30
2018-07-20T09:39:49.389Z,35.20
2018-07-20T09:42:17.671Z,35.30
2018-07-20T09:44:45.817Z,35.60
2018-07-20T09:47:14.035Z,35.60
2018-07-20T09:49:42.190Z,35.30
2018-07-20T09:52:10.394Z,34.70
2018-07-20T09:57:06.849Z,35.20
2018-07-20T09:59:35.652Z,34.70
2018-07-20T10:02:03.815Z,34.40
2018-07-20T10:04:32.027Z,34.20
2018-07-20T10:07:00.738Z,34.80
2018-07-20T10:09:28.924Z,35.40
2018-07-20T10:11:57.109Z,36.10
2018-07-20T10:14:25.367Z,36.30
2018-07-20T10:16:53.566Z,36.50
2018-07-20T10:19:21.779Z,36.30
2018-07-20T10:21:50.290Z,36.00
2018-07-20T10:24:18.470Z,35.70
2018-07-20T10:26:46.933Z,35.90
2018-07-20T10:29:15.144Z,36.20
2018-07-20T10:31:43.348Z,35.90
2018-07-20T10:34:11.589Z,35.70
2018-07-20T10:36:40.068Z,35.10
2018-07-20T10:39:09.271Z,34.70
2018-07-20T10:41:37.582Z,35.30
2018-07-20T10:44:05.796Z,35.10
2018-07-20T10:46:34.064Z,35.30
2018-07-20T10:49:02.282Z,35.50
2018-07-20T10:51:30.457Z,34.70
2018-07-20T10:53:58.717Z,35.00
2018-07-20T10:56:26.866Z,35.40
2018-07-20T10:58:55.453Z,36.00
2018-07-20T11:01:23.768Z,35.90
2018-07-20T11:03:51.938Z,35.90
2018-07-20T11:06:20.175Z,35.50
2018-07-20T11:08:48.380Z,35.60
2018-07-20T11:13:44.577Z,35.30
2018-07-20T11:16:12.750Z,35.80
2018-07-20T11:18:41.011Z,36.30
2018-07-20T11:21:09.189Z,36.70
2018-07-20T11:23:37.412Z,36.70
2018-07-20T11:26:05.971Z,36.80
2018-07-20T11:28:34.215Z,36.70
2018-07-20T11:31:02.914Z,36.60
2018-07-20T11:33:31.117Z,35.60
2018-07-20T11:35:59.517Z,34.80
2018-07-20T11:38:27.719Z,34.10
2018-07-20T11:40:55.924Z,34.10
2018-07-20T11:43:24.146Z,34.10
2018-07-20T11:45:52.302Z,34.70
2018-07-20T11:48:20.498Z,34.80
2018-07-20T11:50:48.695Z,34.70
2018-07-20T11:55:46.476Z,34.20
2018-07-20T11:58:14.650Z,34.50
2018-07-20T12:00:43.285Z,34.90
2018-07-20T12:03:11.475Z,35.10
2018-07-20T12:05:39.641Z,34.90
2018-07-20T12:08:07.880Z,34.90
2018-07-20T12:10:37.026Z,34.90
2018-07-20T12:13:05.265Z,35.30
2018-07-20T12:15:33.498Z,35.30
2018-07-20T12:18:01.703Z,34.50
2018-07-20T12:20:29.911Z,34.10
2018-07-20T12:22:58.136Z,34.00
2018-07-20T12:25:26.687Z,33.80
2018-07-20T12:27:54.953Z,33.80
2018-07-20T12:30:23.170Z,33.90
2018-07-20T12:32:51.341Z,34.30
2018-07-20T12:35:19.755Z,34.30
2018-07-20T12:37:48.721Z,34.10
2018-07-20T12:40:16.959Z,34.00
2018-07-20T12:42:45.165Z,34.30
2018-07-20T12:45:13.413Z,34.50
2018-07-20T12:47:41.641Z,34.90
2018-07-20T12:50:09.903Z,35.40
2018-07-20T12:52:38.241Z,35.50
2018-07-20T12:55:08.081Z,35.60
2018-07-20T12:57:36.841Z,35.00
2018-07-20T13:00:05.341Z,34.70
2018-07-20T13:02:34.362Z,34.60
2018-07-20T13:05:02.536Z,34.50
2018-07-20T13:07:31.461Z,34.50
2018-07-20T13:09:59.760Z,34.20
2018-07-20T13:12:27.996Z,33.80
2018-07-20T13:14:56.263Z,33.90
2018-07-20T13:17:24.437Z,34.00
2018-07-20T13:19:52.977Z,34.20
2018-07-20T13:22:21.183Z,34.30
2018-07-20T13:24:49.614Z,34.30
2018-07-20T13:27:17.903Z,34.30
2018-07-20T13:29:46.345Z,34.40
2018-07-20T13:32:14.601Z,34.40
2018-07-20T13:34:42.918Z,34.20
2018-07-20T13:37:11.109Z,34.30
2018-07-20T13:39:39.286Z,34.50
2018-07-20T13:42:07.463Z,34.70
2018-07-20T13:44:35.648Z,34.70
2018-07-20T13:47:03.862Z,34.50
2018-07-20T13:49:32.391Z,34.60
2018-07-20T13:52:01.077Z,34.90
2018-07-20T13:54:29.295Z,35.20
2018-07-20T13:56:57.436Z,34.80
2018-07-20T13:59:25.642Z,35.10
2018-07-20T14:01:53.821Z,35.60
2018-07-20T14:04:22.046Z,35.40
2018-07-20T14:06:50.634Z,35.20
2018-07-20T14:09:18.850Z,35.80
2018-07-20T14:11:47.022Z,36.20
2018-07-20T14:14:15.221Z,36.80
2018-07-20T14:16:43.446Z,37.20
2018-07-20T14:21:39.565Z,36.90
2018-07-20T14:24:07.938Z,36.80
2018-07-20T14:26:37.037Z,37.10
2018-07-20T14:29:05.166Z,37.40
2018-07-20T14:31:33.464Z,36.50
2018-07-20T14:34:01.673Z,36.80
2018-07-20T14:36:29.873Z,37.30
2018-07-20T14:38:58.241Z,37.90
2018-07-20T14:41:26.527Z,38.10
2018-07-20T14:43:54.841Z,37.70
2018-07-20T14:46:23.802Z,38.00
2018-07-20T14:48:52.245Z,38.20
2018-07-20T14:51:20.471Z,38.10
2018-07-20T14:53:48.653Z,38.20
2018-07-20T14:56:16.845Z,38.50
2018-07-20T14:58:48.997Z,38.40
2018-07-20T15:01:17.286Z,37.60
2018-07-20T15:03:45.487Z,36.40
2018-07-20T15:06:13.683Z,35.30
2018-07-20T15:08:41.957Z,34.40
2018-07-20T15:11:10.347Z,34.00
2018-07-20T15:13:38.575Z,33.70
2018-07-20T15:16:07.032Z,33.50
2018-07-20T15:18:35.174Z,33.60
2018-07-20T15:21:03.433Z,33.70
2018-07-20T15:23:31.687Z,33.80
2018-07-20T15:25:59.838Z,34.00
2018-07-20T15:28:28.070Z,34.50
2018-07-20T15:30:56.298Z,35.20
2018-07-20T15:33:24.488Z,36.40
2018-07-20T15:35:52.716Z,37.60
2018-07-20T15:38:20.997Z,38.70
2018-07-20T15:40:51.104Z,39.30
2018-07-20T15:43:19.311Z,39.50
2018-07-20T15:45:52.036Z,39.80
2018-07-20T15:48:15.697Z,39.40
2018-07-20T15:50:43.961Z,40.00
2018-07-20T15:53:38.864Z,40.00
2018-07-20T15:55:41.275Z,39.50
2018-07-20T15:58:09.485Z,39.10
2018-07-20T16:00:37.693Z,38.30
2018-07-20T16:03:06.414Z,38.10
2018-07-20T16:05:34.716Z,38.80
2018-07-20T16:08:02.927Z,39.30
2018-07-20T16:10:31.125Z,38.80
2018-07-20T16:12:59.330Z,37.20
2018-07-20T16:15:27.522Z,35.30
2018-07-20T16:17:56.058Z,33.80
2018-07-20T16:20:24.549Z,32.80
2018-07-20T16:22:52.808Z,32.00
2018-07-20T16:25:21.049Z,31.40
2018-07-20T16:27:49.223Z,31.00
2018-07-20T16:30:17.568Z,30.70
2018-07-20T16:32:45.690Z,30.50
2018-07-20T16:37:41.894Z,30.40
2018-07-20T16:40:10.721Z,30.20
2018-07-20T16:42:38.937Z,30.10
2018-07-20T16:45:07.442Z,29.90
2018-07-20T16:47:35.664Z,29.70
2018-07-20T16:50:04.251Z,29.60
2018-07-20T16:52:32.465Z,29.50
2018-07-20T16:55:00.651Z,29.50
2018-07-20T16:57:28.813Z,29.50
2018-07-20T16:59:56.997Z,29.70
2018-07-20T17:02:25.238Z,30.00
2018-07-20T17:04:53.451Z,30.20
2018-07-20T17:07:22.021Z,30.50
2018-07-20T17:09:50.742Z,30.70
2018-07-20T17:12:19.203Z,31.00
2018-07-20T17:14:47.625Z,31.70
2018-07-20T17:17:16.766Z,32.50
2018-07-20T17:19:45.022Z,33.20
2018-07-20T17:22:13.322Z,33.50
2018-07-20T17:24:41.586Z,33.60
2018-07-20T17:27:09.753Z,33.50
2018-07-20T17:29:39.103Z,33.00
2018-07-20T17:32:07.304Z,32.40
2018-07-20T17:34:35.533Z,31.80
2018-07-20T17:37:04.224Z,31.50
2018-07-20T17:39:32.405Z,31.30
2018-07-20T17:42:00.622Z,31.10
2018-07-20T17:44:31.666Z,30.90
2018-07-20T17:46:59.970Z,30.70
2018-07-20T17:49:29.876Z,30.60
2018-07-20T17:51:58.059Z,30.40
2018-07-20T17:54:26.272Z,30.40
2018-07-20T17:56:54.545Z,30.20
2018-07-20T17:59:22.721Z,30.10
2018-07-20T18:01:50.959Z,29.90
2018-07-20T18:04:19.153Z,29.70
2018-07-20T18:06:47.429Z,29.50
2018-07-20T18:09:15.634Z,29.50
2018-07-20T18:11:43.847Z,29.30
2018-07-20T18:14:15.773Z,29.20
2018-07-20T18:16:44.115Z,29.10
2018-07-20T18:19:12.210Z,29.10
2018-07-20T18:21:40.389Z,29.10
2018-07-20T18:24:08.665Z,29.00
2018-07-20T18:26:36.909Z,28.90
2018-07-20T18:29:05.090Z,28.80
2018-07-20T18:31:33.282Z,28.60
2018-07-20T18:34:01.600Z,28.40
2018-07-20T18:36:30.146Z,28.30
2018-07-20T18:38:58.298Z,28.20
2018-07-20T18:41:26.647Z,28.10
2018-07-20T18:43:55.181Z,27.90
2018-07-20T18:46:23.382Z,27.80
2018-07-20T18:48:51.937Z,27.60
2018-07-20T18:51:20.207Z,27.40
2018-07-20T18:53:48.356Z,27.30
2018-07-20T18:56:16.541Z,27.10
2018-07-20T18:58:44.975Z,26.90
2018-07-20T19:01:13.505Z,26.80
2018-07-20T19:03:41.803Z,26.60
2018-07-20T19:06:10.249Z,26.40
2018-07-20T19:08:38.436Z,26.30
2018-07-20T19:11:06.686Z,26.10
2018-07-20T19:13:34.893Z,25.90
2018-07-20T19:16:03.471Z,25.80
2018-07-20T19:18:31.641Z,25.60
2018-07-20T19:21:00.088Z,25.40
2018-07-20T19:23:28.432Z,25.30
2018-07-20T19:25:56.638Z,25.10
2018-07-20T19:28:24.834Z,25.00
2018-07-20T19:30:53.259Z,24.80
2018-07-20T19:33:21.508Z,24.80
2018-07-20T19:35:49.889Z,24.70
2018-07-20T19:38:18.049Z,24.60
2018-07-20T19:40:46.258Z,24.50
2018-07-20T19:43:15.230Z,24.40
2018-07-20T19:45:43.398Z,24.30
2018-07-20T19:48:11.610Z,24.30
2018-07-20T19:50:39.810Z,24.30
2018-07-20T19:53:08.149Z,24.20
2018-07-20T19:55:36.337Z,24.20
2018-07-20T19:58:04.617Z,24.10
2018-07-20T20:00:32.778Z,24.10
2018-07-20T20:03:00.999Z,24.10
2018-07-20T20:05:29.197Z,24.00
2018-07-20T20:07:57.420Z,24.00
2018-07-20T20:10:25.585Z,23.90
2018-07-20T20:12:53.980Z,23.90
2018-07-20T20:15:22.614Z,23.90
2018-07-20T20:17:50.821Z,23.90
2018-07-20T20:20:19.058Z,23.80
2018-07-20T20:22:47.201Z,23.80
2018-07-20T20:25:15.405Z,23.80
2018-07-20T20:27:43.593Z,23.70
2018-07-20T20:30:11.860Z,23.70
2018-07-20T20:32:40.078Z,23.70
2018-07-20T20:35:08.331Z,23.70
2018-07-20T20:37:36.547Z,23.60
2018-07-20T20:40:06.030Z,23.60
2018-07-20T20:42:34.869Z,23.50
2018-07-20T20:45:03.300Z,23.40
2018-07-20T20:47:31.535Z,23.30
2018-07-20T20:49:59.743Z,23.20
2018-07-20T20:52:27.997Z,23.30
2018-07-20T20:54:56.161Z,23.30
2018-07-20T20:57:24.361Z,23.30
2018-07-20T20:59:52.578Z,23.20
2018-07-20T21:02:20.754Z,23.20
2018-07-20T21:04:49.766Z,23.20
2018-07-20T21:07:18.719Z,23.10
2018-07-20T21:09:47.514Z,23.00
2018-07-20T21:12:16.495Z,23.00
2018-07-20T21:14:44.800Z,22.90
2018-07-20T21:17:12.968Z,22.90
2018-07-20T21:19:41.456Z,22.90
2018-07-20T21:22:09.630Z,22.90
2018-07-20T21:24:37.842Z,22.90
2018-07-20T21:27:06.130Z,22.70
2018-07-20T21:29:34.335Z,22.60
2018-07-20T21:32:02.505Z,22.60
2018-07-20T21:34:30.697Z,22.50
2018-07-20T21:36:58.892Z,22.50
2018-07-20T21:39:28.862Z,22.70
2018-07-20T21:41:57.074Z,22.70
2018-07-20T21:44:27.003Z,22.90
2018-07-20T21:46:55.245Z,22.90
2018-07-20T21:49:24.130Z,22.90
2018-07-20T21:51:52.273Z,22.80
2018-07-20T21:54:21.300Z,22.70
2018-07-20T21:56:49.958Z,22.60
2018-07-20T21:59:18.130Z,22.50
2018-07-20T22:01:46.318Z,22.30
2018-07-20T22:04:14.535Z,22.20
2018-07-20T22:06:42.767Z,21.90
2018-07-20T22:09:12.792Z,21.80
2018-07-20T22:11:41.002Z,21.60
2018-07-20T22:14:09.188Z,21.40
2018-07-20T22:16:37.406Z,21.20
2018-07-20T22:19:05.604Z,21.10
2018-07-20T22:21:34.194Z,20.90
2018-07-20T22:24:02.419Z,20.80
2018-07-20T22:26:30.609Z,20.80
2018-07-20T22:28:58.809Z,20.80
2018-07-20T22:31:28.657Z,20.80
2018-07-20T22:33:56.859Z,20.80
2018-07-20T22:36:26.970Z,20.90
2018-07-20T22:38:55.965Z,20.90
2018-07-20T22:41:24.205Z,21.00
2018-07-20T22:43:52.390Z,21.00
2018-07-20T22:46:20.597Z,21.00
2018-07-20T22:48:48.801Z,21.10
2018-07-20T22:51:16.986Z,21.10
2018-07-20T22:53:45.292Z,21.10
2018-07-20T22:56:17.059Z,21.00
2018-07-20T22:58:45.262Z,20.80
2018-07-20T23:01:13.517Z,20.70
2018-07-20T23:03:43.633Z,20.60
2018-07-20T23:06:11.818Z,20.40
2018-07-20T23:08:40.011Z,20.30
2018-07-20T23:11:08.255Z,20.20
2018-07-20T23:13:36.618Z,20.10
2018-07-20T23:16:04.836Z,20.00
2018-07-20T23:18:33.081Z,19.90
2018-07-20T23:21:01.280Z,19.90
2018-07-20T23:23:29.429Z,19.90
2018-07-20T23:25:57.647Z,19.80
2018-07-20T23:28:25.926Z,19.80
2018-07-20T23:30:54.481Z,19.70
2018-07-20T23:33:22.745Z,19.60
2018-07-20T23:35:51.642Z,19.60
2018-07-20T23:38:19.818Z,19.40
2018-07-20T23:40:48.022Z,19.30
2018-07-20T23:43:16.222Z,19.20
2018-07-20T23:45:44.410Z,19.10
2018-07-20T23:48:12.634Z,19.00
2018-07-20T23:50:40.841Z,18.90
2018-07-20T23:53:09.043Z,18.80
2018-07-20T23:55:37.225Z,18.80
2018-07-20T23:58:05.422Z,18.80
